Погода Мариалвана неделю

Парана, Бразилия

16 - 22 июля
  • 16июля
    Сегодня
    +13°
    +25°
    Практически безоблачно
    ВремяПогодаТемператураВлажностьДавлениеВетер, м/сВероятность осадков
    00:00Практически безоблачно+15°C95 %715 мм2.5 м/с6 %
    03:00Облачно с прояснениями+15°C94 %714 мм2.4 м/с5 %
    06:00Практически безоблачно+15°C93 %714 мм2.4 м/с5 %
    09:00Облачно с прояснениями+16°C85 %715 мм2.7 м/с5 %
    12:00Ясно и безоблачно+22°C60 %716 мм3.2 м/с5 %
    15:00Практически безоблачно+25°C52 %715 мм2.0 м/с16 %
    18:00Ясно и безоблачно+22°C77 %715 мм1.5 м/с10 %
    21:00Ясно и безоблачно+20°C89 %716 мм1.5 м/с5 %
  • 17июля
    Среда
    +15°
    +26°
    Ясно и безоблачно
    ВремяПогодаТемператураВлажностьДавлениеВетер, м/сВероятность осадков
    00:00Ясно и безоблачно+19°C86 %716 мм2.8 м/с5 %
    03:00Ясно и безоблачно+16°C88 %715 мм2.3 м/с5 %
    06:00Ясно и безоблачно+15°C93 %715 мм1.8 м/с5 %
    09:00Ясно и безоблачно+18°C81 %717 мм0.9 м/с5 %
    12:00Ясно и безоблачно+24°C57 %717 мм1.2 м/с5 %
    15:00Ясно и безоблачно+25°C49 %715 мм1.2 м/с2 %
    18:00Ясно и безоблачно+23°C78 %714 мм2.3 м/с5 %
    21:00Ясно и безоблачно+21°C89 %714 мм1.4 м/с5 %
  • 18июля
    Четверг
    +16°
    +28°
    Ясно и безоблачно
    ВремяПогодаТемператураВлажностьДавлениеВетер, м/сВероятность осадков
    00:00Ясно и безоблачно+18°C90 %714 мм1.8 м/с5 %
    03:00Ясно и безоблачно+17°C87 %713 мм2.1 м/с5 %
    06:00Ясно и безоблачно+16°C83 %712 мм2.3 м/с5 %
    09:00Ясно и безоблачно+20°C74 %715 мм2.2 м/с5 %
    12:00Ясно и безоблачно+27°C44 %715 мм1.5 м/с5 %
    15:00Ясно и безоблачно+27°C38 %714 мм1.5 м/с5 %
    18:00Ясно и безоблачно+25°C73 %714 мм1.7 м/с5 %
    21:00Ясно и безоблачно+21°C77 %714 мм1.8 м/с5 %
  • 19июля
    Пятница
    +14°
    +28°
    Ясно и безоблачно
    ВремяПогодаТемператураВлажностьДавлениеВетер, м/сВероятность осадков
    00:00Ясно и безоблачно+19°C71 %714 мм3.1 м/с5 %
    03:00Ясно и безоблачно+18°C70 %713 мм3.2 м/с5 %
    06:00Ясно и безоблачно+17°C72 %714 мм3.7 м/с5 %
    09:00Ясно и безоблачно+20°C71 %716 мм3.0 м/с5 %
    12:00Ясно и безоблачно+27°C48 %717 мм1.9 м/с5 %
    15:00Ясно и безоблачно+28°C42 %715 мм1.6 м/с5 %
    18:00Ясно и безоблачно+26°C69 %715 мм1.5 м/с5 %
    21:00Ясно и безоблачно+22°C78 %715 мм1.7 м/с5 %
  • 20июля
    Суббота
    +16°
    +28°
    Ясно и безоблачно
    ВремяПогодаТемператураВлажностьДавлениеВетер, м/сВероятность осадков
    00:00Ясно и безоблачно+19°C80 %715 мм2.5 м/с5 %
    03:00Ясно и безоблачно+17°C85 %714 мм2.3 м/с5 %
    06:00Ясно и безоблачно+15°C83 %714 мм1.8 м/с5 %
    09:00Ясно и безоблачно+19°C71 %716 мм1.4 м/с5 %
    12:00Ясно и безоблачно+26°C40 %716 мм0.7 м/с5 %
    15:00Ясно и безоблачно+27°C35 %714 мм1.5 м/с5 %
    18:00Ясно и безоблачно+25°C56 %714 мм1.7 м/с5 %
    21:00Ясно и безоблачно+21°C73 %714 мм1.6 м/с5 %
Мы используем cookies
Соглашаюсь